createdAt,value
2022-12-12T00:00:52.731Z,8.98
2022-12-12T00:03:20.278Z,11.68
2022-12-12T00:05:47.421Z,8.55
2022-12-12T00:08:14.508Z,11.20
2022-12-12T00:10:41.811Z,15.52
2022-12-12T00:13:08.846Z,8.10
2022-12-12T00:15:35.871Z,10.68
2022-12-12T00:18:03.283Z,8.15
2022-12-12T00:20:30.255Z,10.82
2022-12-12T00:22:57.288Z,6.45
2022-12-12T00:25:24.571Z,9.23
2022-12-12T00:27:51.542Z,8.35
2022-12-12T00:30:18.580Z,7.82
2022-12-12T00:32:45.874Z,9.60
2022-12-12T00:35:13.163Z,8.95
2022-12-12T00:37:40.374Z,9.45
2022-12-12T00:40:08.342Z,5.43
2022-12-12T00:42:35.326Z,6.62
2022-12-12T00:45:02.357Z,7.40
2022-12-12T00:47:29.702Z,7.68
2022-12-12T00:49:56.666Z,7.87
2022-12-12T00:52:26.559Z,7.57
2022-12-12T00:54:53.841Z,10.73
2022-12-12T00:57:20.878Z,9.95
2022-12-12T00:59:47.859Z,7.62
2022-12-12T01:02:15.207Z,8.13
2022-12-12T01:04:42.218Z,7.32
2022-12-12T01:07:09.203Z,5.90
2022-12-12T01:09:36.711Z,11.02
2022-12-12T01:12:03.840Z,9.45
2022-12-12T01:14:30.839Z,8.40
2022-12-12T01:16:58.143Z,12.18
2022-12-12T01:19:25.139Z,10.93
2022-12-12T01:21:52.160Z,8.18
2022-12-12T01:24:19.435Z,10.63
2022-12-12T01:26:47.330Z,12.27
2022-12-12T01:29:14.554Z,15.13
2022-12-12T01:31:41.830Z,8.60
2022-12-12T01:34:08.854Z,7.43
2022-12-12T01:36:36.558Z,11.10
2022-12-12T01:39:04.227Z,8.52
2022-12-12T01:41:31.725Z,7.40
2022-12-12T01:44:02.251Z,14.40
2022-12-12T01:46:39.535Z,10.20
2022-12-12T01:49:18.358Z,10.23
2022-12-12T01:51:46.902Z,10.35
2022-12-12T01:54:19.244Z,9.30
2022-12-12T01:56:47.591Z,10.23
2022-12-12T01:59:16.550Z,7.22
2022-12-12T02:01:43.994Z,9.30
2022-12-12T02:04:11.761Z,10.63
2022-12-12T02:06:39.427Z,10.68
2022-12-12T02:09:09.742Z,8.82
2022-12-12T02:11:43.979Z,8.60
2022-12-12T02:14:11.680Z,16.52
2022-12-12T02:16:50.039Z,11.85
2022-12-12T02:19:23.144Z,7.32
2022-12-12T02:22:05.616Z,14.57
2022-12-12T02:25:06.564Z,10.93
2022-12-12T02:28:15.931Z,16.15
2022-12-12T02:31:13.569Z,8.23
2022-12-12T02:33:59.880Z,24.05
2022-12-12T02:36:48.684Z,12.95
2022-12-12T02:39:22.179Z,10.80
2022-12-12T02:41:55.261Z,10.88
2022-12-12T02:44:29.549Z,15.15
2022-12-12T02:47:12.464Z,11.57
2022-12-12T02:49:53.625Z,8.52
2022-12-12T02:52:21.006Z,10.82
2022-12-12T02:54:48.946Z,11.82
2022-12-12T02:57:18.842Z,11.43
2022-12-12T02:59:52.848Z,9.98
2022-12-12T03:02:44.748Z,9.98
2022-12-12T03:06:06.105Z,8.88
2022-12-12T03:08:43.344Z,9.50
2022-12-12T03:11:17.227Z,12.73
2022-12-12T03:16:23.307Z,8.98
2022-12-12T03:18:57.414Z,9.35
2022-12-12T03:22:15.008Z,10.73
2022-12-12T03:25:13.845Z,10.07
2022-12-12T03:28:09.857Z,9.82
2022-12-12T03:30:41.884Z,7.18
2022-12-12T03:33:35.137Z,6.90
2022-12-12T03:36:05.167Z,13.60
2022-12-12T03:38:35.544Z,9.75
2022-12-12T03:41:05.676Z,9.55
2022-12-12T03:43:37.939Z,11.43
2022-12-12T03:46:28.095Z,14.43
2022-12-12T03:49:07.507Z,11.85
2022-12-12T03:51:39.933Z,9.40
2022-12-12T03:54:21.004Z,10.38
2022-12-12T03:57:00.852Z,11.18
2022-12-12T03:59:34.661Z,15.95
2022-12-12T04:02:11.957Z,13.25
2022-12-12T04:04:56.737Z,11.88
2022-12-12T04:07:28.102Z,8.65
2022-12-12T04:10:13.898Z,11.68
2022-12-12T04:13:00.363Z,9.82
2022-12-12T04:15:51.810Z,15.30
2022-12-12T04:18:53.558Z,12.82
2022-12-12T04:21:59.374Z,11.07
2022-12-12T04:24:36.295Z,7.37
2022-12-12T04:27:15.690Z,10.65
2022-12-12T04:29:46.588Z,14.55
2022-12-12T04:32:27.305Z,10.90
2022-12-12T04:34:57.953Z,11.45
2022-12-12T04:37:46.794Z,12.73
2022-12-12T04:40:18.223Z,13.20
2022-12-12T04:42:50.139Z,13.68
2022-12-12T04:45:21.063Z,15.00
2022-12-12T04:47:50.535Z,13.90
2022-12-12T04:50:19.682Z,11.75
2022-12-12T04:52:48.556Z,10.10
2022-12-12T04:55:22.881Z,13.68
2022-12-12T04:57:54.753Z,14.38
2022-12-12T05:00:23.532Z,12.55
2022-12-12T05:03:01.183Z,10.52
2022-12-12T05:05:29.836Z,14.68
2022-12-12T05:08:08.831Z,11.73
2022-12-12T05:10:42.850Z,15.43
2022-12-12T05:13:21.632Z,14.07
2022-12-12T05:15:51.279Z,15.45
2022-12-12T05:18:18.515Z,15.05
2022-12-12T05:20:45.903Z,21.65
2022-12-12T05:23:13.209Z,17.77
2022-12-12T05:25:40.215Z,15.07
2022-12-12T05:28:07.223Z,16.55
2022-12-12T05:30:34.731Z,14.27
2022-12-12T05:33:01.841Z,10.40
2022-12-12T05:35:28.986Z,12.07
2022-12-12T05:37:56.579Z,14.77
2022-12-12T05:40:23.820Z,14.05
2022-12-12T05:42:52.004Z,16.87
2022-12-12T05:45:19.572Z,18.95
2022-12-12T05:47:46.605Z,12.95
2022-12-12T05:50:13.609Z,16.75
2022-12-12T05:52:42.916Z,11.90
2022-12-12T05:55:10.033Z,13.60
2022-12-12T05:57:37.239Z,15.20
2022-12-12T06:00:05.371Z,17.77
2022-12-12T06:02:32.383Z,12.10
2022-12-12T06:04:59.705Z,12.07
2022-12-12T06:07:26.828Z,12.07
2022-12-12T06:09:55.764Z,13.43
2022-12-12T06:12:23.366Z,14.43
2022-12-12T06:14:50.359Z,11.80
2022-12-12T06:17:17.343Z,16.00
2022-12-12T06:19:44.606Z,14.65
2022-12-12T06:22:11.622Z,14.60
2022-12-12T06:24:38.665Z,14.13
2022-12-12T06:27:05.934Z,16.33
2022-12-12T06:29:33.091Z,15.68
2022-12-12T06:32:00.076Z,15.23
2022-12-12T06:34:27.377Z,14.85
2022-12-12T06:36:54.400Z,10.45
2022-12-12T06:39:21.404Z,15.38
2022-12-12T06:41:48.710Z,11.93
2022-12-12T06:44:15.932Z,15.73
2022-12-12T06:46:43.091Z,10.35
2022-12-12T06:49:10.525Z,15.88
2022-12-12T06:51:43.876Z,13.40
2022-12-12T06:54:12.963Z,16.98
2022-12-12T06:56:46.303Z,10.50
2022-12-12T06:59:16.397Z,15.55
2022-12-12T07:01:43.980Z,15.38
2022-12-12T07:04:14.844Z,13.07
2022-12-12T07:06:42.334Z,13.10
2022-12-12T07:09:09.807Z,19.00
2022-12-12T07:11:36.786Z,14.32
2022-12-12T07:14:05.714Z,17.52
2022-12-12T07:16:32.752Z,14.40
2022-12-12T07:19:00.015Z,16.15
2022-12-12T07:21:27.327Z,15.73
2022-12-12T07:23:56.969Z,16.40
2022-12-12T07:26:24.291Z,17.87
2022-12-12T07:28:51.746Z,15.10
2022-12-12T07:31:21.723Z,13.23
2022-12-12T07:33:48.829Z,16.20
2022-12-12T07:36:16.575Z,13.90
2022-12-12T07:38:44.130Z,15.93
2022-12-12T07:41:14.799Z,19.08
2022-12-12T07:43:44.858Z,17.20
2022-12-12T07:46:18.306Z,17.10
2022-12-12T07:48:46.188Z,19.83
2022-12-12T07:51:13.448Z,22.25
2022-12-12T07:53:40.709Z,15.48
2022-12-12T07:56:09.986Z,14.07
2022-12-12T07:58:37.321Z,14.05
2022-12-12T08:01:16.250Z,20.92
2022-12-12T08:03:45.036Z,14.18
2022-12-12T08:06:12.726Z,16.10
2022-12-12T08:08:39.733Z,16.23
2022-12-12T08:11:11.944Z,11.07
2022-12-12T08:13:40.127Z,14.68
2022-12-12T08:16:12.333Z,19.80
2022-12-12T08:18:39.387Z,12.85
2022-12-12T08:21:11.351Z,14.65
2022-12-12T08:23:39.716Z,12.48
2022-12-12T08:26:11.753Z,11.50
2022-12-12T08:28:41.433Z,11.35
2022-12-12T08:31:08.995Z,11.18
2022-12-12T08:33:36.063Z,12.30
2022-12-12T08:36:21.143Z,12.75
2022-12-12T08:38:48.262Z,9.93
2022-12-12T08:41:16.116Z,14.25
2022-12-12T08:43:43.973Z,13.85
2022-12-12T08:46:17.369Z,9.88
2022-12-12T08:48:46.658Z,8.98
2022-12-12T08:51:14.867Z,13.13
2022-12-12T08:53:44.780Z,9.90
2022-12-12T08:56:12.326Z,14.95
2022-12-12T08:58:39.326Z,8.25
2022-12-12T09:01:14.792Z,7.87
2022-12-12T09:03:42.120Z,10.38
2022-12-12T09:06:10.295Z,11.00
2022-12-12T09:08:37.973Z,8.23
2022-12-12T09:11:05.530Z,15.45
2022-12-12T09:13:33.002Z,12.23
2022-12-12T09:16:00.228Z,12.27
2022-12-12T09:18:27.608Z,12.02
2022-12-12T09:20:56.742Z,13.45
2022-12-12T09:23:25.031Z,9.32
2022-12-12T09:25:53.278Z,8.95
2022-12-12T09:28:21.726Z,10.93
2022-12-12T09:30:49.542Z,13.95
2022-12-12T09:33:17.383Z,13.93
2022-12-12T09:35:44.600Z,13.50
2022-12-12T09:38:14.556Z,8.43
2022-12-12T09:40:51.294Z,10.40
2022-12-12T09:43:26.131Z,8.20
2022-12-12T09:45:57.004Z,12.82
2022-12-12T09:48:44.791Z,7.85
2022-12-12T09:51:12.826Z,8.63
2022-12-12T09:53:42.936Z,12.50
2022-12-12T09:56:11.089Z,9.52
2022-12-12T09:58:51.389Z,9.75
2022-12-12T10:01:25.264Z,13.05
2022-12-12T10:04:22.795Z,9.60
2022-12-12T10:06:55.638Z,11.23
2022-12-12T10:09:37.553Z,8.57
2022-12-12T10:12:08.366Z,9.05
2022-12-12T10:14:45.243Z,13.23
2022-12-12T10:17:16.688Z,8.32
2022-12-12T10:20:14.157Z,9.57
2022-12-12T10:22:48.489Z,10.23
2022-12-12T10:25:47.720Z,11.45
2022-12-12T10:28:17.524Z,9.65
2022-12-12T10:30:57.021Z,9.93
2022-12-12T10:33:56.362Z,8.85
2022-12-12T10:36:32.052Z,8.18
2022-12-12T10:39:40.527Z,7.22
2022-12-12T10:42:20.052Z,10.48
2022-12-12T10:44:47.471Z,12.90
2022-12-12T10:47:18.008Z,8.43
2022-12-12T10:49:45.092Z,7.12
2022-12-12T10:52:22.482Z,6.20
2022-12-12T10:54:57.171Z,7.87
2022-12-12T10:57:29.122Z,6.75
2022-12-12T10:59:58.459Z,7.40
2022-12-12T11:02:37.837Z,5.97
2022-12-12T11:05:05.324Z,4.07
2022-12-12T11:07:37.221Z,7.30
2022-12-12T11:10:14.594Z,8.63
2022-12-12T11:12:41.926Z,9.75
2022-12-12T11:15:17.106Z,7.20
2022-12-12T11:17:44.626Z,9.60
2022-12-12T11:20:18.026Z,7.97
2022-12-12T11:22:45.453Z,6.93
2022-12-12T11:25:44.569Z,7.07
2022-12-12T11:28:20.306Z,9.68
2022-12-12T11:30:50.878Z,8.77
2022-12-12T11:33:24.208Z,8.98
2022-12-12T11:35:55.999Z,8.38
2022-12-12T11:38:50.642Z,10.55
2022-12-12T11:41:17.861Z,7.32
2022-12-12T11:43:47.988Z,7.87
2022-12-12T11:46:14.998Z,7.07
2022-12-12T11:48:47.726Z,7.07
2022-12-12T11:51:39.834Z,5.43
2022-12-12T11:54:19.984Z,13.77
2022-12-12T11:57:04.685Z,12.35
2022-12-12T11:59:59.137Z,7.10
2022-12-12T12:05:15.193Z,10.32
2022-12-12T12:08:03.599Z,9.73
2022-12-12T12:10:43.035Z,8.25
2022-12-12T12:13:26.516Z,7.78
2022-12-12T12:16:18.166Z,8.90
2022-12-12T12:18:57.514Z,10.95
2022-12-12T12:21:34.690Z,6.82
2022-12-12T12:24:02.738Z,6.53
2022-12-12T12:26:53.116Z,10.43
2022-12-12T12:29:36.041Z,6.95
2022-12-12T12:32:26.480Z,5.55
2022-12-12T12:35:08.208Z,8.02
2022-12-12T12:37:44.501Z,8.77
2022-12-12T12:40:36.374Z,9.43
2022-12-12T12:43:48.640Z,5.12
2022-12-12T12:46:29.527Z,12.45
2022-12-12T12:49:01.399Z,9.70
2022-12-12T12:51:37.020Z,8.57
2022-12-12T12:54:04.250Z,7.00
2022-12-12T12:56:33.686Z,5.45
2022-12-12T12:59:06.426Z,7.35
2022-12-12T13:01:43.530Z,5.85
2022-12-12T13:04:10.579Z,7.78
2022-12-12T13:06:37.814Z,6.40
2022-12-12T13:09:32.446Z,9.05
2022-12-12T13:14:46.595Z,9.70
2022-12-12T13:17:25.848Z,8.00
2022-12-12T13:19:54.083Z,6.70
2022-12-12T13:22:48.393Z,6.57
2022-12-12T13:25:30.027Z,6.67
2022-12-12T13:27:59.025Z,6.90
2022-12-12T13:30:44.800Z,9.57
2022-12-12T13:33:28.219Z,8.45
2022-12-12T13:36:05.223Z,10.68
2022-12-12T13:38:33.522Z,10.45
2022-12-12T13:41:03.077Z,10.00
2022-12-12T13:43:33.151Z,8.65
2022-12-12T13:46:20.014Z,8.77
2022-12-12T13:49:11.273Z,7.93
2022-12-12T13:51:42.320Z,7.87
2022-12-12T13:54:14.528Z,8.43
2022-12-12T13:56:45.656Z,10.52
2022-12-12T13:59:27.437Z,9.77
2022-12-12T14:02:23.729Z,12.45
2022-12-12T14:05:10.591Z,10.40
2022-12-12T14:07:48.030Z,8.68
2022-12-12T14:10:52.022Z,14.87
2022-12-12T14:13:21.942Z,8.55
2022-12-12T14:15:58.051Z,9.63
2022-12-12T14:18:30.251Z,14.00
2022-12-12T14:21:02.490Z,13.73
2022-12-12T14:23:33.315Z,13.82
2022-12-12T14:26:01.473Z,9.60
2022-12-12T14:28:32.213Z,13.25
2022-12-12T14:31:06.702Z,12.18
2022-12-12T14:33:52.693Z,14.87
2022-12-12T14:36:36.266Z,12.50
2022-12-12T14:39:14.487Z,13.88
2022-12-12T14:41:44.512Z,8.43
2022-12-12T14:44:35.470Z,9.40
2022-12-12T14:47:08.910Z,12.55
2022-12-12T14:49:36.421Z,11.63
2022-12-12T14:52:03.733Z,10.63
2022-12-12T14:54:31.077Z,10.63
2022-12-12T14:56:59.247Z,13.35
2022-12-12T14:59:31.897Z,10.45
2022-12-12T15:02:16.997Z,16.17
2022-12-12T15:04:46.179Z,11.30
2022-12-12T15:07:28.530Z,12.77
2022-12-12T15:09:55.704Z,12.30
2022-12-12T15:12:32.911Z,12.32
2022-12-12T15:15:00.302Z,12.13
2022-12-12T15:17:30.143Z,8.50
2022-12-12T15:20:02.866Z,15.43
2022-12-12T15:22:33.526Z,10.38
2022-12-12T15:25:20.603Z,11.65
2022-12-12T15:27:55.579Z,13.80
2022-12-12T15:30:37.150Z,11.95
2022-12-12T15:33:14.852Z,14.52
2022-12-12T15:35:55.206Z,14.60
2022-12-12T15:38:27.377Z,14.25
2022-12-12T15:40:57.802Z,14.93
2022-12-12T15:43:26.659Z,16.25
2022-12-12T15:45:55.397Z,16.10
2022-12-12T15:48:23.265Z,16.45
2022-12-12T15:50:59.849Z,15.30
2022-12-12T15:53:29.689Z,15.85
2022-12-12T15:56:01.005Z,18.35
2022-12-12T15:58:35.080Z,16.60
2022-12-12T16:01:20.766Z,12.05
2022-12-12T16:04:12.593Z,12.95
2022-12-12T16:06:44.513Z,11.63
2022-12-12T16:09:11.703Z,12.85
2022-12-12T16:11:49.367Z,14.02
2022-12-12T16:14:35.327Z,12.02
2022-12-12T16:17:06.064Z,14.82
2022-12-12T16:20:01.248Z,13.00
2022-12-12T16:25:21.404Z,10.88
2022-12-12T16:27:52.848Z,12.88
2022-12-12T16:30:20.333Z,12.75
2022-12-12T16:32:47.321Z,11.43
2022-12-12T16:35:19.130Z,10.15
2022-12-12T16:37:46.470Z,8.02
2022-12-12T16:40:16.900Z,9.82
2022-12-12T16:42:45.789Z,11.48
2022-12-12T16:45:13.071Z,9.38
2022-12-12T16:47:40.225Z,12.10
2022-12-12T16:50:07.495Z,8.45
2022-12-12T16:52:34.797Z,10.95
2022-12-12T16:55:01.969Z,11.60
2022-12-12T16:57:28.973Z,9.43
2022-12-12T16:59:56.312Z,6.43
2022-12-12T17:02:24.150Z,8.75
2022-12-12T17:04:51.918Z,11.23
2022-12-12T17:07:19.350Z,8.82
2022-12-12T17:09:46.702Z,11.50
2022-12-12T17:12:15.332Z,9.23
2022-12-12T17:14:42.723Z,11.52
2022-12-12T17:17:10.088Z,14.32
2022-12-12T17:19:37.378Z,8.25
2022-12-12T17:22:04.898Z,10.10
2022-12-12T17:24:32.927Z,11.70
2022-12-12T17:26:59.938Z,9.25
2022-12-12T17:29:27.207Z,10.00
2022-12-12T17:31:54.306Z,10.15
2022-12-12T17:34:21.390Z,14.63
2022-12-12T17:36:48.693Z,12.95
2022-12-12T17:39:15.681Z,12.05
2022-12-12T17:41:42.691Z,13.45
2022-12-12T17:44:09.996Z,9.65
2022-12-12T17:46:37.317Z,10.65
2022-12-12T17:49:04.326Z,16.37
2022-12-12T17:51:31.711Z,9.75
2022-12-12T17:54:00.220Z,9.20
2022-12-12T17:56:27.776Z,7.95
2022-12-12T17:58:56.818Z,12.02
2022-12-12T18:01:28.710Z,11.70
2022-12-12T18:03:56.780Z,14.85
2022-12-12T18:06:24.825Z,13.40
2022-12-12T18:08:52.690Z,10.73
2022-12-12T18:11:26.945Z,8.88
2022-12-12T18:13:57.444Z,12.37
2022-12-12T18:16:27.053Z,11.93
2022-12-12T18:18:56.305Z,11.45
2022-12-12T18:24:13.432Z,10.77
2022-12-12T18:26:40.616Z,12.98
2022-12-12T18:29:08.397Z,14.20
2022-12-12T18:31:35.950Z,12.43
2022-12-12T18:34:03.540Z,16.58
2022-12-12T18:36:31.621Z,11.07
2022-12-12T18:39:01.031Z,11.60
2022-12-12T18:41:28.575Z,11.32
2022-12-12T18:43:55.581Z,14.65
2022-12-12T18:46:24.764Z,11.32
2022-12-12T18:48:52.010Z,14.15
2022-12-12T18:51:23.171Z,12.63
2022-12-12T18:53:51.865Z,11.20
2022-12-12T18:56:25.428Z,14.90
2022-12-12T18:58:53.710Z,20.30
2022-12-12T19:01:23.148Z,10.65
2022-12-12T19:03:52.126Z,11.20
2022-12-12T19:06:33.539Z,10.60
2022-12-12T19:09:08.487Z,13.23
2022-12-12T19:11:36.073Z,15.07
2022-12-12T19:14:03.405Z,15.75
2022-12-12T19:16:30.723Z,23.17
2022-12-12T19:19:00.227Z,15.23
2022-12-12T19:21:30.224Z,15.30
2022-12-12T19:23:59.158Z,14.45
2022-12-12T19:26:28.242Z,19.12
2022-12-12T19:29:00.514Z,18.67
2022-12-12T19:31:27.897Z,17.65
2022-12-12T19:33:56.891Z,15.52
2022-12-12T19:36:26.748Z,18.23
2022-12-12T19:38:57.014Z,17.30
2022-12-12T19:41:24.094Z,18.27
2022-12-12T19:43:52.060Z,15.98
2022-12-12T19:46:21.640Z,22.13
2022-12-12T19:48:49.139Z,14.93
2022-12-12T19:51:18.846Z,15.60
2022-12-12T19:53:49.456Z,11.27
2022-12-12T19:56:22.058Z,17.90
2022-12-12T19:58:50.403Z,15.48
2022-12-12T20:01:20.386Z,19.83
2022-12-12T20:03:50.924Z,22.65
2022-12-12T20:06:18.714Z,17.75
2022-12-12T20:08:46.236Z,16.98
2022-12-12T20:11:18.840Z,19.95
2022-12-12T20:13:50.175Z,13.85
2022-12-12T20:16:18.774Z,15.05
2022-12-12T20:18:47.438Z,16.12
2022-12-12T20:21:43.360Z,20.20
2022-12-12T20:24:07.870Z,19.40
2022-12-12T20:26:37.725Z,21.65
2022-12-12T20:29:05.057Z,18.10
2022-12-12T20:31:38.142Z,19.17
2022-12-12T20:34:05.536Z,16.85
2022-12-12T20:36:34.416Z,13.15
2022-12-12T20:39:06.305Z,19.10
2022-12-12T20:41:38.662Z,15.98
2022-12-12T20:44:07.220Z,20.85
2022-12-12T20:46:36.977Z,19.80
2022-12-12T20:49:06.883Z,19.55
2022-12-12T20:54:22.489Z,19.75
2022-12-12T20:56:50.174Z,25.42
2022-12-12T20:59:20.148Z,16.65
2022-12-12T21:01:47.768Z,19.92
2022-12-12T21:04:17.075Z,17.15
2022-12-12T21:06:48.410Z,15.75
2022-12-12T21:09:22.832Z,21.80
2022-12-12T21:11:55.629Z,22.60
2022-12-12T21:14:24.195Z,20.58
2022-12-12T21:16:51.702Z,18.12
2022-12-12T21:19:19.056Z,28.38
2022-12-12T21:21:46.600Z,17.10
2022-12-12T21:24:16.731Z,23.27
2022-12-12T21:26:44.253Z,17.55
2022-12-12T21:29:11.933Z,18.40
2022-12-12T21:31:48.202Z,17.48
2022-12-12T21:34:17.973Z,17.65
2022-12-12T21:36:45.092Z,24.02
2022-12-12T21:39:12.706Z,19.95
2022-12-12T21:41:42.063Z,20.95
2022-12-12T21:44:09.423Z,25.37
2022-12-12T21:46:36.529Z,20.30
2022-12-12T21:49:22.496Z,20.85
2022-12-12T21:51:53.897Z,12.45
2022-12-12T21:54:21.571Z,21.83
2022-12-12T21:56:48.972Z,19.65
2022-12-12T21:59:18.852Z,18.25
2022-12-12T22:01:46.519Z,22.25
2022-12-12T22:04:19.792Z,18.60
2022-12-12T22:06:49.893Z,18.27
2022-12-12T22:09:20.138Z,14.80
2022-12-12T22:11:49.894Z,17.55
2022-12-12T22:14:19.611Z,18.98
2022-12-12T22:16:46.783Z,16.20
2022-12-12T22:19:15.137Z,19.33
2022-12-12T22:21:47.294Z,12.93
2022-12-12T22:24:15.420Z,19.73
2022-12-12T22:26:45.462Z,22.00
2022-12-12T22:29:15.128Z,13.15
2022-12-12T22:31:43.016Z,15.48
2022-12-12T22:34:24.272Z,14.13
2022-12-12T22:36:52.855Z,17.08
2022-12-12T22:39:24.059Z,19.20
2022-12-12T22:41:52.156Z,16.65
2022-12-12T22:44:22.119Z,15.95
2022-12-12T22:46:50.716Z,12.93
2022-12-12T22:49:21.106Z,14.25
2022-12-12T22:51:49.389Z,16.58
2022-12-12T22:54:16.519Z,17.87
2022-12-12T22:56:43.897Z,13.77
2022-12-12T22:59:13.339Z,16.10
2022-12-12T23:01:41.117Z,16.60
2022-12-12T23:04:12.646Z,16.50
2022-12-12T23:06:40.360Z,18.20
2022-12-12T23:09:14.345Z,11.02
2022-12-12T23:11:42.368Z,8.32
2022-12-12T23:14:14.309Z,12.85
2022-12-12T23:16:42.543Z,12.10
2022-12-12T23:19:10.362Z,14.85
2022-12-12T23:21:38.060Z,16.83
2022-12-12T23:24:06.447Z,13.52
2022-12-12T23:26:35.753Z,7.78
2022-12-12T23:29:04.192Z,10.70
2022-12-12T23:31:33.492Z,12.65
2022-12-12T23:34:03.422Z,13.43
2022-12-12T23:36:30.554Z,17.77
2022-12-12T23:39:06.197Z,11.38
2022-12-12T23:41:34.855Z,13.60
2022-12-12T23:44:02.252Z,16.40
2022-12-12T23:46:29.684Z,13.38
2022-12-12T23:49:06.891Z,11.68
2022-12-12T23:51:39.547Z,19.02
2022-12-12T23:54:09.629Z,13.35
2022-12-12T23:56:37.484Z,14.05
2022-12-12T23:59:04.508Z,18.17
